Time;durP1;ratioP1;P1;durP2;ratioP2;P2;SDS_P1;SDS_P2;PMS_P1;PMS_P2;Temp;Humidity;BMP_temperature;BMP_pressure;BME280_temperature;BME280_humidity;BME280_pressure;Samples;Min_cycle;Max_cycle;Signal;HPM_P1;HPM_P2
2021/05/02 00:00:23;;;;;;;22.37;19.93;;;8.10;40.50;;;;;;5094653;28;20268;-87
2021/05/02 00:02:49;;;;;;;22.77;20.07;;;8.20;39.00;;;;;;5094422;28;20250;-84
2021/05/02 00:05:18;;;;;;;21.90;19.33;;;8.20;37.20;;;;;;5093577;28;20205;-90
2021/05/02 00:07:44;;;;;;;23.17;20.73;;;8.20;36.90;;;;;;5094726;28;20168;-80
2021/05/02 00:10:12;;;;;;;22.37;19.83;;;8.10;41.30;;;;;;5094847;28;20160;-91
2021/05/02 00:12:38;;;;;;;22.83;20.37;;;8.10;43.80;;;;;;5094611;28;20167;-82
2021/05/02 00:15:07;;;;;;;24.20;20.50;;;8.00;45.60;;;;;;5094833;28;20164;-87
2021/05/02 00:17:36;;;;;;;22.13;19.80;;;8.00;47.20;;;;;;5094276;28;20179;-78
2021/05/02 00:20:04;;;;;;;21.47;19.17;;;8.00;47.90;;;;;;5093955;28;20667;-88
2021/05/02 00:22:30;;;;;;;22.10;19.70;;;8.10;46.50;;;;;;5094180;28;20152;-90
2021/05/02 00:24:57;;;;;;;23.67;20.07;;;8.00;49.30;;;;;;5094458;28;20168;-88
2021/05/02 00:27:23;;;;;;;23.90;20.53;;;8.00;48.90;;;;;;5094351;28;20251;-87
2021/05/02 00:29:48;;;;;;;23.73;20.70;;;8.00;49.90;;;;;;5093949;28;20178;-83
2021/05/02 00:32:14;;;;;;;22.27;19.87;;;8.00;52.30;;;;;;5093900;28;20172;-79
2021/05/02 00:34:40;;;;;;;24.23;20.27;;;8.00;51.50;;;;;;5093910;28;20168;-84
2021/05/02 00:37:06;;;;;;;25.30;20.17;;;8.00;50.90;;;;;;5093518;28;20164;-86
2021/05/02 00:39:34;;;;;;;25.43;20.70;;;7.90;53.50;;;;;;5093991;28;20206;-87
2021/05/02 00:42:04;;;;;;;24.80;21.10;;;8.00;55.50;;;;;;5094524;28;20230;-88
2021/05/02 00:44:40;;;;;;;22.63;20.10;;;7.90;54.80;;;;;;5092785;28;20229;-78
2021/05/02 00:47:23;;;;;;;25.70;20.50;;;7.80;55.30;;;;;;5094332;28;20168;-80
2021/05/02 00:49:56;;;;;;;25.03;20.23;;;7.70;58.40;;;;;;5095467;28;20213;-87
2021/05/02 00:52:34;;;;;;;21.37;19.07;;;7.80;58.70;;;;;;5098215;28;20159;-89
2021/05/02 00:55:08;;;;;;;30.43;21.47;;;7.70;57.70;;;;;;5093011;28;20647;-83
2021/05/02 00:57:53;;;;;;;27.27;21.00;;;7.70;56.50;;;;;;5094528;28;20171;-82
2021/05/02 01:00:20;;;;;;;24.80;20.40;;;7.80;56.00;;;;;;5094091;28;20277;-88
2021/05/02 01:02:47;;;;;;;22.23;19.83;;;7.70;55.30;;;;;;5093504;28;20192;-88
2021/05/02 01:05:13;;;;;;;26.27;21.03;;;7.80;55.90;;;;;;5093685;28;20728;-90
2021/05/02 01:07:41;;;;;;;23.40;20.77;;;7.80;54.00;;;;;;5093954;28;20273;-87
2021/05/02 01:10:15;;;;;;;23.07;19.43;;;7.80;56.70;;;;;;5093812;28;20164;-88
2021/05/02 01:12:45;;;;;;;25.73;21.67;;;7.90;54.00;;;;;;5093988;28;20170;-88
2021/05/02 01:15:19;;;;;;;23.37;20.03;;;8.00;50.30;;;;;;5093913;28;20167;-89
2021/05/02 01:17:45;;;;;;;23.70;20.63;;;8.00;50.70;;;;;;5092551;28;20607;-88
2021/05/02 01:20:15;;;;;;;25.97;20.03;;;8.00;48.20;;;;;;5093040;28;20560;-80
2021/05/02 01:22:42;;;;;;;22.63;20.23;;;8.00;49.70;;;;;;5093063;28;20263;-86
2021/05/02 01:25:10;;;;;;;24.60;21.17;;;8.00;48.00;;;;;;5093763;28;20174;-87
2021/05/02 01:27:36;;;;;;;25.80;20.67;;;7.90;49.20;;;;;;5094039;28;20168;-89
2021/05/02 01:30:07;;;;;;;23.37;20.50;;;7.80;50.20;;;;;;5093904;28;20228;-88
2021/05/02 01:32:32;;;;;;;24.50;20.67;;;7.70;53.50;;;;;;5092472;28;20221;-89
2021/05/02 01:34:58;;;;;;;25.97;21.17;;;7.60;56.30;;;;;;5094901;28;20171;-88
2021/05/02 01:37:24;;;;;;;22.63;20.27;;;7.70;56.10;;;;;;5094107;28;20270;-80
2021/05/02 01:39:50;;;;;;;22.23;19.83;;;7.80;56.30;;;;;;5093627;28;20663;-86
2021/05/02 01:42:16;;;;;;;26.00;21.30;;;7.80;51.00;;;;;;5091790;28;20168;-87
2021/05/02 01:44:42;;;;;;;22.97;20.57;;;7.80;47.70;;;;;;5093150;28;20186;-88
2021/05/02 01:47:17;;;;;;;27.13;22.63;;;7.70;49.80;;;;;;5093633;28;20168;-87
2021/05/02 01:49:47;;;;;;;26.13;20.33;;;7.50;52.10;;;;;;5095576;28;20178;-90
2021/05/02 01:52:16;;;;;;;26.63;22.40;;;7.50;54.00;;;;;;5097868;28;20223;-85
2021/05/02 01:54:43;;;;;;;24.50;21.73;;;7.50;53.20;;;;;;5097578;28;20171;-88
2021/05/02 01:57:18;;;;;;;26.67;22.27;;;7.30;57.50;;;;;;5097993;28;20173;-90
2021/05/02 01:59:46;;;;;;;23.63;19.97;;;7.40;62.70;;;;;;5097856;28;20568;-86
2021/05/02 02:02:13;;;;;;;27.30;21.57;;;7.40;59.30;;;;;;5096533;28;20255;-91
2021/05/02 02:04:43;;;;;;;28.10;21.40;;;7.40;61.10;;;;;;5097548;28;20178;-91
2021/05/02 02:07:12;;;;;;;24.67;21.03;;;7.50;58.80;;;;;;5097400;28;20160;-84
2021/05/02 02:09:39;;;;;;;25.37;22.67;;;7.50;59.20;;;;;;5096341;28;20175;-88
2021/05/02 02:12:07;;;;;;;24.07;21.23;;;7.40;60.90;;;;;;5097557;28;20174;-90
2021/05/02 02:14:36;;;;;;;28.53;22.47;;;7.40;59.30;;;;;;5097665;28;20176;-84
2021/05/02 02:17:03;;;;;;;24.63;21.40;;;7.50;56.70;;;;;;5107770;28;20203;-85
2021/05/02 02:19:29;;;;;;;25.50;21.70;;;7.40;56.60;;;;;;5097150;28;20207;-87
2021/05/02 02:21:57;;;;;;;27.80;22.33;;;7.50;58.60;;;;;;5097031;28;20167;-88
2021/05/02 02:24:41;;;;;;;27.03;22.70;;;7.40;58.60;;;;;;5097035;28;20168;-85
2021/05/02 02:27:08;;;;;;;29.43;23.60;;;7.30;61.00;;;;;;5098621;28;20160;-86
2021/05/02 02:29:42;;;;;;;26.33;20.50;;;7.40;61.70;;;;;;5101331;28;20160;-89
2021/05/02 02:32:11;;;;;;;27.53;22.33;;;7.40;61.70;;;;;;5097364;28;20175;-90
2021/05/02 02:34:43;;;;;;;26.33;20.60;;;7.40;63.30;;;;;;5096960;28;20167;-86
2021/05/02 02:37:12;;;;;;;26.83;21.50;;;7.40;65.00;;;;;;5096811;28;20174;-89
2021/05/02 02:39:38;;;;;;;25.00;20.87;;;7.30;64.90;;;;;;5096195;28;20234;-89
2021/05/02 02:42:05;;;;;;;24.77;20.43;;;7.30;66.40;;;;;;5096755;28;20598;-87
2021/05/02 02:44:31;;;;;;;25.70;19.77;;;7.50;63.00;;;;;;5096975;28;20670;-90
2021/05/02 02:46:59;;;;;;;24.50;20.23;;;7.60;56.10;;;;;;5096241;28;20171;-87
2021/05/02 02:49:28;;;;;;;22.70;20.30;;;7.50;54.60;;;;;;5096668;28;20232;-88
2021/05/02 02:51:56;;;;;;;24.23;21.20;;;7.50;53.90;;;;;;5096629;28;20168;-89
2021/05/02 02:54:23;;;;;;;25.00;20.90;;;7.50;54.90;;;;;;5096601;28;20165;-91
2021/05/02 02:56:53;;;;;;;27.63;21.33;;;7.50;55.20;;;;;;5096474;28;20172;-88
2021/05/02 02:59:25;;;;;;;24.40;21.27;;;7.50;53.90;;;;;;5096091;28;20198;-88
2021/05/02 03:01:54;;;;;;;26.43;21.47;;;7.40;57.90;;;;;;5096387;28;20221;-84
2021/05/02 03:04:23;;;;;;;25.30;20.67;;;7.40;57.90;;;;;;5096071;28;20217;-90
2021/05/02 03:06:52;;;;;;;27.23;21.23;;;7.40;59.40;;;;;;5096313;28;20631;-90
2021/05/02 03:09:20;;;;;;;27.83;22.80;;;7.50;58.80;;;;;;5095910;28;20168;-88
2021/05/02 03:11:46;;;;;;;26.00;21.60;;;7.60;57.70;;;;;;5096137;28;20163;-89
2021/05/02 03:14:12;;;;;;;25.50;20.27;;;7.70;59.10;;;;;;5094939;28;20179;-86
2021/05/02 03:16:41;;;;;;;26.97;21.57;;;7.50;59.60;;;;;;5096051;28;20245;-90
2021/05/02 03:19:41;;;;;;;26.27;21.87;;;7.30;68.60;;;;;;5095833;28;20195;-89
2021/05/02 03:22:08;;;;;;;26.57;21.43;;;7.20;73.60;;;;;;5094327;28;20183;-89
2021/05/02 03:24:40;;;;;;;24.57;19.80;;;7.10;75.00;;;;;;5095773;28;20159;-85
2021/05/02 03:27:22;;;;;;;17.23;13.27;;;7.00;84.10;;;;;;5095838;28;20164;-86
2021/05/02 03:29:48;;;;;;;17.03;13.30;;;6.80;81.10;;;;;;5095512;28;20553;-88
2021/05/02 03:32:15;;;;;;;14.80;13.07;;;6.90;80.80;;;;;;5095663;28;20235;-88
2021/05/02 03:34:42;;;;;;;18.57;14.73;;;7.10;78.50;;;;;;5095380;28;20163;-85
2021/05/02 03:37:14;;;;;;;20.80;18.30;;;7.20;74.70;;;;;;5095278;28;20174;-85
2021/05/02 03:39:41;;;;;;;22.33;19.97;;;7.30;73.30;;;;;;5095034;28;20215;-87
2021/05/02 03:42:07;;;;;;;23.93;20.97;;;7.40;71.60;;;;;;5095289;28;20163;-87
2021/05/02 03:44:32;;;;;;;26.97;22.57;;;7.50;71.50;;;;;;5093963;28;20854;-88
2021/05/02 03:46:58;;;;;;;29.70;23.10;;;7.50;74.10;;;;;;5095287;28;20186;-86
2021/05/02 03:49:24;;;;;;;27.20;23.60;;;7.70;71.10;;;;;;5094926;28;20246;-83
2021/05/02 03:51:50;;;;;;;29.67;25.23;;;7.60;71.40;;;;;;5095145;28;20171;-86
2021/05/02 03:54:15;;;;;;;32.50;25.37;;;7.50;75.00;;;;;;5094876;28;20167;-79
2021/05/02 03:56:42;;;;;;;30.50;25.30;;;7.60;78.80;;;;;;5095165;28;20614;-88
2021/05/02 03:59:14;;;;;;;31.90;27.77;;;7.60;78.80;;;;;;5094498;28;20195;-85
2021/05/02 04:02:00;;;;;;;33.27;27.07;;;7.50;83.10;;;;;;5095239;28;20168;-88
2021/05/02 04:04:28;;;;;;;33.70;28.03;;;7.50;85.70;;;;;;5094614;28;20650;-84
2021/05/02 04:06:58;;;;;;;35.67;26.60;;;7.50;85.00;;;;;;5095199;28;20591;-86
2021/05/02 04:09:24;;;;;;;31.83;26.73;;;7.40;87.40;;;;;;5094177;28;20655;-85
2021/05/02 04:11:50;;;;;;;32.90;26.37;;;7.50;87.50;;;;;;5093474;28;20175;-86
2021/05/02 04:14:17;;;;;;;32.37;26.20;;;7.50;87.90;;;;;;5094308;28;20160;-86
2021/05/02 04:16:43;;;;;;;33.17;26.53;;;7.50;86.60;;;;;;5094586;28;20176;-86
2021/05/02 04:19:10;;;;;;;34.37;27.10;;;7.50;86.10;;;;;;5094076;28;20211;-88
2021/05/02 04:21:38;;;;;;;34.37;26.30;;;7.50;86.20;;;;;;5094388;28;20174;-88
2021/05/02 04:24:04;;;;;;;29.50;26.13;;;7.50;86.00;;;;;;5094560;28;20187;-80
2021/05/02 04:26:30;;;;;;;30.80;26.07;;;7.40;83.40;;;;;;5094824;28;20211;-88
2021/05/02 04:28:56;;;;;;;30.47;25.50;;;7.30;84.30;;;;;;5093990;28;20229;-86
2021/05/02 04:31:22;;;;;;;28.93;25.00;;;7.50;84.90;;;;;;5093907;28;20167;-87
2021/05/02 04:33:47;;;;;;;29.93;25.83;;;7.60;83.70;;;;;;5093299;28;20248;-89
2021/05/02 04:36:14;;;;;;;30.40;25.60;;;7.60;81.80;;;;;;5094151;28;20180;-87
2021/05/02 04:38:40;;;;;;;27.80;24.60;;;7.70;79.70;;;;;;5094296;28;20212;-89
2021/05/02 04:41:06;;;;;;;28.43;24.97;;;7.80;78.40;;;;;;5094045;28;20207;-86
2021/05/02 04:43:31;;;;;;;27.70;24.20;;;7.90;76.40;;;;;;5092864;28;20180;-88
2021/05/02 04:45:57;;;;;;;27.27;24.10;;;7.90;76.80;;;;;;5093907;28;20671;-88
2021/05/02 04:48:23;;;;;;;28.03;23.83;;;7.90;76.80;;;;;;5094055;28;20220;-88
2021/05/02 04:50:49;;;;;;;26.67;23.07;;;7.90;75.90;;;;;;5093444;28;20168;-84
2021/05/02 04:53:14;;;;;;;28.80;24.07;;;8.00;72.90;;;;;;5094198;28;20254;-89
2021/05/02 04:55:40;;;;;;;27.63;23.17;;;8.00;70.50;;;;;;5094224;28;20234;-89
2021/05/02 04:58:08;;;;;;;29.07;23.67;;;7.90;72.90;;;;;;5094205;28;20693;-84
2021/05/02 05:00:34;;;;;;;27.53;24.10;;;8.10;74.70;;;;;;5094024;28;20210;-80
2021/05/02 05:03:01;;;;;;;26.73;23.83;;;8.20;69.30;;;;;;5094188;28;20257;-85
2021/05/02 05:05:26;;;;;;;28.87;23.53;;;8.30;68.50;;;;;;5093739;28;20242;-89
2021/05/02 05:07:52;;;;;;;26.13;22.90;;;8.30;68.50;;;;;;5093961;28;20199;-88
2021/05/02 05:10:18;;;;;;;27.47;23.47;;;8.40;70.50;;;;;;5093691;28;20191;-86
2021/05/02 05:12:44;;;;;;;25.23;21.53;;;8.50;69.80;;;;;;5093860;28;20250;-84
2021/05/02 05:15:10;;;;;;;22.70;20.27;;;8.60;67.40;;;;;;5093877;28;20176;-87
2021/05/02 05:17:36;;;;;;;22.40;20.00;;;8.50;63.40;;;;;;5093645;28;20680;-80
2021/05/02 05:20:03;;;;;;;24.17;20.73;;;8.60;58.50;;;;;;5093213;28;20203;-87
2021/05/02 05:22:29;;;;;;;24.37;20.93;;;8.60;54.90;;;;;;5093853;28;20167;-87
2021/05/02 05:24:54;;;;;;;22.67;20.30;;;8.50;56.50;;;;;;5097318;28;20182;-88
2021/05/02 05:27:20;;;;;;;21.67;19.17;;;8.60;58.10;;;;;;5097715;28;20253;-79
2021/05/02 05:29:46;;;;;;;22.70;19.73;;;8.40;56.90;;;;;;5097528;28;20171;-88
2021/05/02 05:32:11;;;;;;;22.37;19.97;;;8.30;58.30;;;;;;5097527;28;20179;-86
2021/05/02 05:34:37;;;;;;;22.63;19.10;;;8.30;62.90;;;;;;5097248;28;20217;-88
2021/05/02 05:37:03;;;;;;;20.70;17.57;;;8.50;61.50;;;;;;5098995;28;20178;-90
2021/05/02 05:39:28;;;;;;;23.20;18.47;;;8.40;58.70;;;;;;5100333;28;20183;-84
2021/05/02 05:41:54;;;;;;;19.67;16.70;;;8.30;59.90;;;;;;5097466;28;20246;-76
2021/05/02 05:44:20;;;;;;;22.10;17.47;;;8.10;60.80;;;;;;5097371;28;20187;-87
2021/05/02 05:46:45;;;;;;;22.10;17.13;;;8.10;67.40;;;;;;5097006;28;20179;-90
2021/05/02 05:49:11;;;;;;;18.77;16.23;;;8.20;68.20;;;;;;5097420;28;20196;-88
2021/05/02 05:51:37;;;;;;;19.03;16.97;;;8.30;64.70;;;;;;5097091;28;20163;-76
2021/05/02 05:54:03;;;;;;;18.67;16.00;;;8.40;62.30;;;;;;5097481;28;20682;-86
2021/05/02 05:56:29;;;;;;;18.27;16.27;;;8.40;59.80;;;;;;5097056;28;20176;-88
2021/05/02 05:58:54;;;;;;;20.83;16.90;;;8.30;61.50;;;;;;5097232;28;20180;-85
2021/05/02 06:01:20;;;;;;;18.67;16.60;;;8.40;61.20;;;;;;5096982;28;20530;-80
2021/05/02 06:03:46;;;;;;;26.13;18.00;;;8.20;64.00;;;;;;5097194;28;20202;-88
2021/05/02 06:06:11;;;;;;;21.80;17.90;;;8.20;65.50;;;;;;5097081;28;20527;-89
2021/05/02 06:08:37;;;;;;;19.90;17.67;;;8.10;66.90;;;;;;5097197;28;20164;-88
2021/05/02 06:11:03;;;;;;;20.30;17.60;;;8.10;67.00;;;;;;5097073;28;20620;-88
2021/05/02 06:13:28;;;;;;;21.27;18.77;;;8.20;65.50;;;;;;5096768;28;20179;-86
2021/05/02 06:15:54;;;;;;;24.17;19.23;;;8.30;61.60;;;;;;5096594;28;20168;-87
2021/05/02 06:18:20;;;;;;;24.20;19.43;;;8.30;67.20;;;;;;5096662;28;20226;-90
2021/05/02 06:20:45;;;;;;;21.17;18.87;;;8.40;70.80;;;;;;5096817;28;20234;-90
2021/05/02 06:23:11;;;;;;;22.13;19.50;;;8.60;68.80;;;;;;5097548;28;20653;-88
2021/05/02 06:25:36;;;;;;;21.20;18.87;;;8.60;63.60;;;;;;5097515;28;20174;-87
2021/05/02 06:28:02;;;;;;;21.83;18.80;;;8.70;62.60;;;;;;5096686;28;20648;-86
2021/05/02 06:30:28;;;;;;;20.63;18.43;;;8.70;57.70;;;;;;5096762;28;20195;-88
2021/05/02 06:32:53;;;;;;;19.97;16.97;;;8.80;55.70;;;;;;5096408;28;20183;-88
2021/05/02 06:35:19;;;;;;;21.47;17.80;;;8.80;54.20;;;;;;5096240;28;20179;-87
2021/05/02 06:37:45;;;;;;;20.27;17.40;;;9.00;51.20;;;;;;5096437;28;20171;-89
2021/05/02 06:40:11;;;;;;;20.33;16.40;;;8.80;52.30;;;;;;5096296;28;20207;-88
2021/05/02 06:42:37;;;;;;;22.97;17.90;;;8.80;53.50;;;;;;5096142;28;20182;-88
2021/05/02 06:45:04;;;;;;;18.77;14.37;;;8.70;57.60;;;;;;5096482;28;20631;-86
2021/05/02 06:47:30;;;;;;;16.67;13.77;;;8.80;55.80;;;;;;5096079;28;20269;-89
2021/05/02 06:49:55;;;;;;;15.73;12.20;;;8.80;51.50;;;;;;5095989;28;20221;-85
2021/05/02 06:52:22;;;;;;;15.67;11.93;;;8.80;43.80;;;;;;5095811;28;20167;-87
2021/05/02 06:54:48;;;;;;;17.27;12.03;;;8.70;45.50;;;;;;5096103;28;20160;-91
2021/05/02 06:57:13;;;;;;;18.60;13.30;;;8.70;43.10;;;;;;5089874;28;20293;-88
2021/05/02 06:59:39;;;;;;;18.93;12.70;;;8.70;46.70;;;;;;5064836;28;20258;-86
2021/05/02 07:02:04;;;;;;;13.47;9.13;;;8.70;48.10;;;;;;5055503;28;20173;-86
2021/05/02 07:04:34;;;;;;;16.07;10.70;;;8.80;39.60;;;;;;5055223;28;20185;-88
2021/05/02 07:07:03;;;;;;;13.23;8.20;;;8.90;31.60;;;;;;5055138;28;20211;-86
2021/05/02 07:09:29;;;;;;;17.43;7.67;;;8.90;19.90;;;;;;5054933;28;20192;-82
2021/05/02 07:11:55;;;;;;;9.50;6.63;;;8.70;1.30;;;;;;5055858;28;20219;-93
2021/05/02 07:14:21;;;;;;;9.53;6.37;;;8.80;1.00;;;;;;5056291;28;20173;-87
2021/05/02 07:16:47;;;;;;;12.77;6.57;;;8.80;1.00;;;;;;5054131;28;20188;-88
2021/05/02 07:19:13;;;;;;;8.57;6.23;;;8.90;1.00;;;;;;5055229;28;20201;-87
2021/05/02 07:21:39;;;;;;;8.33;5.60;;;8.80;1.00;;;;;;5069907;28;20184;-88
2021/05/02 07:24:05;;;;;;;10.97;6.37;;;8.80;1.00;;;;;;5074982;28;20640;-88
2021/05/02 07:26:31;;;;;;;8.90;5.40;;;9.00;1.00;;;;;;5080995;28;20183;-78
2021/05/02 07:28:56;;;;;;;8.90;5.83;;;9.20;1.00;;;;;;5076751;28;20175;-80
2021/05/02 07:31:22;;;;;;;10.60;5.40;;;9.30;1.00;;;;;;5076297;28;20172;-84
2021/05/02 07:33:48;;;;;;;9.40;5.00;;;9.20;1.00;;;;;;5074479;28;20188;-83
2021/05/02 07:36:14;;;;;;;8.23;4.40;;;9.20;1.00;;;;;;5074496;28;20172;-80
2021/05/02 07:38:42;;;;;;;9.47;4.43;;;9.40;1.00;;;;;;5079885;28;20176;-76
2021/05/02 07:41:08;;;;;;;7.70;4.83;;;9.40;1.00;;;;;;5074440;28;20212;-85
2021/05/02 07:43:34;;;;;;;8.07;4.20;;;9.30;1.00;;;;;;5074535;28;20184;-86
2021/05/02 07:46:03;;;;;;;7.47;3.93;;;9.40;1.00;;;;;;5073499;28;20176;-80
2021/05/02 07:48:29;;;;;;;7.30;3.77;;;9.40;1.00;;;;;;5073954;28;20184;-81
2021/05/02 07:50:55;;;;;;;6.30;3.10;;;9.50;1.00;;;;;;5073834;28;20624;-78
2021/05/02 07:53:20;;;;;;;5.90;3.30;;;9.50;1.00;;;;;;5074010;28;20245;-85
2021/05/02 07:55:46;;;;;;;11.83;4.77;;;9.60;1.00;;;;;;5079792;28;20187;-79
2021/05/02 07:58:12;;;;;;;7.77;3.87;;;9.80;1.00;;;;;;5072812;28;20184;-82
2021/05/02 08:00:38;;;;;;;6.73;3.97;;;10.10;1.00;;;;;;5074229;28;20284;-81
2021/05/02 08:03:04;;;;;;;6.43;2.67;;;10.30;1.00;;;;;;5074778;28;20180;-82
2021/05/02 08:05:31;;;;;;;8.67;3.30;;;10.20;99.90;;;;;;5074976;28;20172;-84
2021/05/02 08:07:57;;;;;;;7.13;2.83;;;10.10;99.90;;;;;;5074076;28;20173;-85
2021/05/02 08:10:23;;;;;;;5.47;2.53;;;10.00;99.90;;;;;;5073164;28;20183;-86
2021/05/02 08:12:52;;;;;;;7.67;2.87;;;10.10;99.90;;;;;;5073669;28;20165;-78
2021/05/02 08:15:18;;;;;;;5.27;2.50;;;10.20;41.80;;;;;;5073531;28;20176;-81
2021/05/02 08:17:44;;;;;;;5.17;2.63;;;10.40;1.00;;;;;;5073431;28;20234;-80
2021/05/02 08:20:10;;;;;;;7.97;3.00;;;10.50;1.00;;;;;;5073064;28;20568;-80
2021/05/02 08:22:36;;;;;;;8.03;3.27;;;10.70;1.00;;;;;;5074397;28;20204;-85
2021/05/02 08:25:06;;;;;;;5.90;3.00;;;10.80;12.60;;;;;;5074497;28;20179;-81
2021/05/02 08:27:33;;;;;;;6.57;3.10;;;10.70;1.00;;;;;;5073317;28;20174;-86
2021/05/02 08:30:03;;;;;;;4.70;2.60;;;10.60;1.00;;;;;;5079452;28;20178;-91
2021/05/02 08:32:28;;;;;;;8.20;2.93;;;10.60;1.00;;;;;;5073888;28;20214;-81
2021/05/02 08:34:54;;;;;;;4.37;2.57;;;10.40;72.00;;;;;;5074365;28;20176;-82
2021/05/02 08:37:20;;;;;;;6.90;2.47;;;10.20;1.00;;;;;;5074649;28;20180;-78
2021/05/02 08:39:45;;;;;;;4.80;2.43;;;10.40;1.00;;;;;;5073230;28;20257;-90
2021/05/02 08:42:11;;;;;;;6.57;2.80;;;10.30;99.90;;;;;;5074249;28;20160;-86
2021/05/02 08:44:37;;;;;;;6.17;2.40;;;10.40;99.90;;;;;;5073810;28;20259;-89
2021/05/02 08:47:05;;;;;;;8.07;2.53;;;10.60;99.90;;;;;;5073842;28;20253;-89
2021/05/02 08:49:30;;;;;;;5.77;2.57;;;10.60;1.00;;;;;;5073316;28;20172;-77
2021/05/02 08:51:56;;;;;;;4.67;1.93;;;10.70;1.00;;;;;;5074135;28;20702;-89
2021/05/02 08:54:22;;;;;;;5.13;2.43;;;10.60;1.00;;;;;;5074122;28;20240;-88
2021/05/02 08:56:52;;;;;;;5.47;2.43;;;10.40;40.10;;;;;;5073856;28;20551;-87
2021/05/02 08:59:18;;;;;;;5.33;2.40;;;10.50;99.90;;;;;;5073284;28;20234;-81
2021/05/02 09:01:45;;;;;;;6.13;2.37;;;10.60;97.90;;;;;;5073992;28;20207;-82
2021/05/02 09:04:11;;;;;;;8.30;4.03;;;10.70;33.30;;;;;;5072895;28;20165;-83
2021/05/02 09:06:39;;;;;;;5.37;2.60;;;11.00;1.00;;;;;;5072830;28;20636;-88
2021/05/02 09:09:06;;;;;;;4.13;2.20;;;11.40;1.00;;;;;;5073334;28;20172;-85
2021/05/02 09:11:44;;;;;;;4.33;2.30;;;11.50;1.00;;;;;;5073861;28;20157;-82
2021/05/02 09:14:29;;;;;;;4.10;2.20;;;11.50;99.90;;;;;;5073778;28;20670;-91
2021/05/02 09:16:57;;;;;;;8.37;2.70;;;11.60;99.90;;;;;;5073371;28;20171;-84
2021/05/02 09:19:25;;;;;;;4.47;2.40;;;11.70;1.00;;;;;;5073854;28;20200;-77
2021/05/02 09:21:52;;;;;;;5.67;2.60;;;11.30;74.50;;;;;;5074248;28;20172;-87
2021/05/02 09:24:35;;;;;;;6.10;2.90;;;11.00;1.00;;;;;;5074461;28;20164;-88
2021/05/02 09:27:11;;;;;;;7.60;2.50;;;11.10;99.90;;;;;;5073595;28;20188;-82
2021/05/02 09:29:38;;;;;;;4.60;2.53;;;11.10;99.90;;;;;;5073201;28;20163;-80
2021/05/02 09:32:07;;;;;;;5.03;3.07;;;11.10;99.90;;;;;;5076987;28;20616;-82
2021/05/02 09:34:33;;;;;;;7.03;2.73;;;11.00;1.00;;;;;;5077923;28;20180;-86
2021/05/02 09:37:07;;;;;;;5.13;2.37;;;10.80;99.90;;;;;;5084100;28;20657;-87
2021/05/02 09:39:38;;;;;;;5.23;2.30;;;10.70;1.00;;;;;;5087082;28;20202;-90
2021/05/02 09:42:05;;;;;;;4.10;2.20;;;10.80;1.00;;;;;;5073945;28;20253;-89
2021/05/02 09:45:03;;;;;;;5.30;2.77;;;10.60;1.00;;;;;;5076538;28;20175;-83
2021/05/02 09:47:35;;;;;;;5.47;2.23;;;10.60;99.90;;;;;;5075630;28;20276;-90
2021/05/02 09:50:18;;;;;;;6.70;2.40;;;10.60;1.00;;;;;;5073409;28;20172;-86
2021/05/02 09:52:44;;;;;;;4.63;2.60;;;10.60;99.90;;;;;;5072062;28;20282;-91
2021/05/02 09:55:26;;;;;;;5.27;2.67;;;10.60;1.00;;;;;;5073260;28;20628;-78
2021/05/02 09:58:03;;;;;;;5.20;2.63;;;10.80;1.00;;;;;;5073355;28;20168;-80
2021/05/02 10:00:41;;;;;;;5.27;2.07;;;11.00;99.90;;;;;;5073531;28;20215;-87
2021/05/02 10:03:26;;;;;;;6.23;2.50;;;10.90;1.00;;;;;;5074082;28;20187;-92
2021/05/02 10:05:52;;;;;;;4.97;2.60;;;10.80;1.00;;;;;;5075571;28;20195;-88
2021/05/02 10:08:20;;;;;;;4.33;2.37;;;10.70;99.90;;;;;;5074236;28;20231;-91
2021/05/02 10:10:46;;;;;;;5.33;2.87;;;10.50;99.90;;;;;;5076859;28;20157;-87
2021/05/02 10:13:12;;;;;;;6.20;3.27;;;10.40;99.90;;;;;;5077547;28;20206;-94
2021/05/02 10:15:38;;;;;;;6.27;2.90;;;10.60;1.00;;;;;;5077448;28;20169;-92
2021/05/02 10:18:04;;;;;;;7.20;3.30;;;10.70;33.50;;;;;;5076688;28;20241;-93
2021/05/02 10:20:30;;;;;;;8.93;3.13;;;10.60;1.00;;;;;;5077121;28;20291;-79
2021/05/02 10:22:56;;;;;;;7.07;2.90;;;10.70;99.90;;;;;;5077199;28;20164;-90
2021/05/02 10:25:22;;;;;;;5.93;3.03;;;10.80;1.00;;;;;;5077608;28;20626;-91
2021/05/02 10:27:50;;;;;;;6.30;2.43;;;10.90;99.90;;;;;;5078643;28;20156;-88
2021/05/02 10:30:20;;;;;;;8.93;3.10;;;10.90;99.90;;;;;;5076909;28;20652;-93
2021/05/02 10:32:51;;;;;;;6.60;3.40;;;11.00;99.90;;;;;;5076944;28;20261;-81
2021/05/02 10:35:17;;;;;;;6.07;3.20;;;10.70;1.00;;;;;;5081339;28;20259;-82
2021/05/02 10:37:54;;;;;;;5.60;2.97;;;10.90;99.90;;;;;;5076514;28;20168;-92
2021/05/02 10:40:20;;;;;;;5.50;2.93;;;10.90;1.00;;;;;;5077475;28;20227;-88
2021/05/02 10:42:51;;;;;;;4.73;2.80;;;10.90;1.00;;;;;;5078654;28;20160;-82
2021/05/02 10:45:54;;;;;;;4.63;2.47;;;11.00;8.00;;;;;;5076533;28;20180;-88
2021/05/02 10:48:24;;;;;;;3.33;2.13;;;11.20;48.90;;;;;;5075807;28;20597;-78
2021/05/02 10:50:54;;;;;;;5.10;2.57;;;11.50;1.00;;;;;;5076767;28;20171;-91
2021/05/02 10:53:24;;;;;;;4.57;2.90;;;11.70;99.90;;;;;;5076433;28;20639;-79
2021/05/02 10:56:00;;;;;;;5.53;2.60;;;11.60;99.90;;;;;;5075372;28;20211;-91
2021/05/02 10:58:40;;;;;;;6.13;2.70;;;11.60;99.90;;;;;;5076555;28;20167;-78
2021/05/02 11:01:33;;;;;;;4.60;2.87;;;11.50;99.90;;;;;;5078377;28;20235;-90
2021/05/02 11:04:00;;;;;;;4.43;2.73;;;11.30;99.90;;;;;;5078307;28;20188;-84
2021/05/02 11:06:38;;;;;;;3.23;2.13;;;11.20;1.00;;;;;;5078978;28;20227;-84
2021/05/02 11:09:17;;;;;;;5.40;2.60;;;11.10;1.00;;;;;;5083617;28;20196;-89
2021/05/02 11:11:52;;;;;;;3.73;2.30;;;11.10;99.90;;;;;;5078403;28;20176;-91
2021/05/02 11:14:21;;;;;;;4.43;2.57;;;11.10;99.90;;;;;;5078722;28;20168;-91
2021/05/02 11:17:19;;;;;;;5.27;2.70;;;11.20;1.00;;;;;;5076454;28;20234;-86
2021/05/02 11:19:50;;;;;;;8.10;3.20;;;11.30;99.90;;;;;;5077363;28;20224;-80
2021/05/02 11:22:17;;;;;;;5.30;2.47;;;11.50;78.00;;;;;;5064562;28;20196;-89
2021/05/02 11:27:50;;;;;;;5.07;2.70;;;11.40;99.90;;;;;;5076648;28;20598;-87
2021/05/02 11:30:18;;;;;;;5.07;2.27;;;11.30;1.00;;;;;;5091917;28;20178;-89
2021/05/02 11:32:45;;;;;;;4.07;2.70;;;11.30;99.90;;;;;;5091909;28;20186;-79
2021/05/02 11:35:17;;;;;;;8.23;2.63;;;11.60;99.90;;;;;;5093202;28;20191;-83
2021/05/02 11:38:03;;;;;;;5.07;2.50;;;11.60;1.00;;;;;;5095004;28;20164;-85
2021/05/02 11:40:32;;;;;;;3.13;2.00;;;11.80;1.00;;;;;;5094235;28;20214;-87
2021/05/02 11:43:02;;;;;;;4.37;2.80;;;11.90;1.00;;;;;;5092618;28;20573;-79
2021/05/02 11:45:39;;;;;;;8.87;2.60;;;11.80;99.90;;;;;;5094120;28;20168;-86
2021/05/02 11:48:08;;;;;;;8.93;2.83;;;11.40;1.00;;;;;;5083009;28;20194;-79
2021/05/02 11:50:47;;;;;;;5.10;3.10;;;11.20;65.60;;;;;;5073256;28;20184;-79
2021/05/02 11:53:29;;;;;;;4.83;3.20;;;11.10;99.90;;;;;;5075027;28;20161;-90
2021/05/02 11:55:55;;;;;;;5.53;3.17;;;11.00;1.00;;;;;;5075042;28;20232;-89
2021/05/02 11:58:21;;;;;;;5.90;3.87;;;10.90;99.90;;;;;;5080781;28;20237;-79
2021/05/02 12:00:51;;;;;;;5.27;3.20;;;11.00;96.30;;;;;;5085203;28;20200;-82
2021/05/02 12:03:32;;;;;;;3.90;2.80;;;11.20;99.90;;;;;;5084433;28;20248;-86
2021/05/02 12:05:58;;;;;;;4.07;2.70;;;11.20;1.00;;;;;;5074484;28;20330;-85
2021/05/02 12:08:25;;;;;;;4.37;2.50;;;11.10;1.00;;;;;;5075322;28;20705;-88
2021/05/02 12:11:02;;;;;;;6.17;2.77;;;10.90;99.90;;;;;;5074843;28;20471;-89
2021/05/02 12:13:37;;;;;;;4.73;2.67;;;10.90;99.90;;;;;;5073989;28;20243;-83
2021/05/02 12:16:03;;;;;;;5.77;3.13;;;11.00;99.90;;;;;;5073606;28;20157;-79
2021/05/02 12:18:48;;;;;;;4.83;2.40;;;11.20;77.20;;;;;;5074343;28;20246;-78
2021/05/02 12:21:18;;;;;;;5.87;3.07;;;11.20;1.00;;;;;;5075013;28;20214;-76
2021/05/02 12:23:44;;;;;;;6.87;2.87;;;11.40;99.90;;;;;;5073248;28;20561;-78
2021/05/02 12:26:12;;;;;;;5.37;2.63;;;11.30;99.90;;;;;;5074368;28;20235;-87
2021/05/02 12:28:38;;;;;;;5.20;2.43;;;11.40;99.90;;;;;;5079254;28;20164;-83
2021/05/02 12:31:07;;;;;;;3.87;2.60;;;11.60;36.10;;;;;;5099017;28;20644;-88
2021/05/02 12:33:36;;;;;;;5.47;2.80;;;11.80;1.00;;;;;;5100267;28;20251;-83
2021/05/02 12:36:07;;;;;;;3.30;2.27;;;11.80;1.00;;;;;;5098387;28;20164;-88
2021/05/02 12:38:34;;;;;;;4.27;2.53;;;12.00;1.00;;;;;;5095819;28;20171;-86
2021/05/02 12:41:00;;;;;;;3.83;2.47;;;12.20;99.90;;;;;;5092612;28;20211;-84
2021/05/02 12:43:31;;;;;;;5.37;2.33;;;12.20;99.90;;;;;;5095936;28;20546;-81
2021/05/02 12:45:58;;;;;;;3.73;2.60;;;12.00;99.90;;;;;;5092916;28;20175;-80
2021/05/02 12:48:39;;;;;;;5.47;2.70;;;12.00;99.90;;;;;;5093762;28;20195;-81
2021/05/02 12:51:04;;;;;;;5.77;3.27;;;11.90;1.00;;;;;;5079292;28;20172;-87
2021/05/02 12:53:41;;;;;;;5.67;3.23;;;12.00;1.00;;;;;;5072563;28;20245;-86